createdAt,value
2017-04-09T00:00:07.101Z,3.50
2017-04-09T00:01:06.320Z,3.40
2017-04-09T00:02:06.297Z,3.30
2017-04-09T00:03:05.473Z,3.30
2017-04-09T00:04:04.714Z,3.30
2017-04-09T00:05:03.913Z,3.30
2017-04-09T00:06:03.156Z,3.30
2017-04-09T00:07:02.332Z,3.40
2017-04-09T00:08:02.265Z,3.40
2017-04-09T00:09:01.452Z,3.40
2017-04-09T00:10:00.989Z,3.40
2017-04-09T00:11:00.206Z,3.40
2017-04-09T00:12:00.146Z,3.40
2017-04-09T00:12:59.353Z,3.40
2017-04-09T00:13:58.587Z,3.50
2017-04-09T00:14:57.769Z,3.50
2017-04-09T00:15:56.980Z,3.50
2017-04-09T00:16:56.897Z,3.50
2017-04-09T00:17:56.133Z,3.50
2017-04-09T00:18:55.320Z,3.60
2017-04-09T00:19:54.520Z,3.60
2017-04-09T00:20:53.743Z,3.50
2017-04-09T00:21:53.686Z,3.50
2017-04-09T00:22:52.872Z,3.40
2017-04-09T00:23:52.091Z,3.40
2017-04-09T00:24:51.261Z,3.40
2017-04-09T00:25:50.436Z,3.40
2017-04-09T00:26:49.609Z,3.40
2017-04-09T00:27:48.826Z,3.30
2017-04-09T00:28:48.745Z,3.30
2017-04-09T00:29:47.948Z,3.30
2017-04-09T00:30:47.128Z,3.20
2017-04-09T00:31:46.345Z,3.20
2017-04-09T00:32:46.291Z,3.10
2017-04-09T00:33:45.501Z,3.00
2017-04-09T00:34:44.685Z,3.00
2017-04-09T00:35:43.888Z,3.00
2017-04-09T00:36:43.825Z,3.00
2017-04-09T00:37:43.010Z,3.00
2017-04-09T00:38:42.212Z,3.00
2017-04-09T00:39:41.417Z,3.00
2017-04-09T00:40:40.660Z,3.10
2017-04-09T00:41:39.848Z,3.10
2017-04-09T00:42:39.046Z,3.10
2017-04-09T00:43:38.261Z,3.20
2017-04-09T00:44:37.453Z,3.20
2017-04-09T00:45:36.669Z,3.20
2017-04-09T00:46:36.620Z,3.20
2017-04-09T00:47:35.816Z,3.30
2017-04-09T00:48:34.993Z,3.30
2017-04-09T00:49:34.928Z,3.20
2017-04-09T00:50:34.127Z,3.20
2017-04-09T00:51:33.352Z,3.30
2017-04-09T00:52:33.304Z,3.30
2017-04-09T00:53:32.537Z,3.20
2017-04-09T00:54:31.716Z,3.20
2017-04-09T00:55:30.896Z,3.20
2017-04-09T00:56:30.323Z,3.10
2017-04-09T00:57:29.829Z,3.10
2017-04-09T00:58:29.017Z,3.10
2017-04-09T00:59:28.194Z,3.10
2017-04-09T01:00:27.439Z,3.10
2017-04-09T01:01:27.376Z,3.10
2017-04-09T01:02:26.631Z,3.10
2017-04-09T01:03:26.580Z,3.10
2017-04-09T01:04:25.752Z,3.20
2017-04-09T01:05:24.939Z,3.20
2017-04-09T01:06:24.160Z,3.20
2017-04-09T01:07:23.342Z,3.20
2017-04-09T01:08:22.524Z,3.20
2017-04-09T01:09:22.041Z,3.20
2017-04-09T01:10:21.346Z,3.10
2017-04-09T01:11:21.313Z,3.00
2017-04-09T01:12:20.517Z,3.00
2017-04-09T01:13:19.701Z,3.00
2017-04-09T01:14:18.977Z,3.00
2017-04-09T01:15:18.504Z,2.90
2017-04-09T01:16:18.429Z,2.90
2017-04-09T01:17:17.632Z,2.90
2017-04-09T01:18:17.557Z,2.80
2017-04-09T01:19:16.736Z,2.80
2017-04-09T01:20:15.965Z,2.70
2017-04-09T01:21:15.215Z,2.60
2017-04-09T01:22:14.463Z,2.60
2017-04-09T01:23:14.408Z,2.50
2017-04-09T01:24:14.328Z,2.50
2017-04-09T01:25:13.541Z,2.50
2017-04-09T01:26:13.535Z,2.40
2017-04-09T01:27:12.757Z,2.50
2017-04-09T01:28:12.688Z,2.50
2017-04-09T01:29:11.889Z,2.50
2017-04-09T01:30:11.096Z,2.50
2017-04-09T01:31:10.324Z,2.60
2017-04-09T01:32:10.261Z,2.60
2017-04-09T01:33:09.479Z,2.60
2017-04-09T01:34:08.665Z,2.70
2017-04-09T01:35:07.897Z,2.70
2017-04-09T01:36:07.067Z,2.70
2017-04-09T01:37:06.306Z,2.80
2017-04-09T01:38:05.494Z,2.80
2017-04-09T01:39:05.576Z,2.80
2017-04-09T01:40:04.810Z,2.80
2017-04-09T01:41:03.991Z,2.90
2017-04-09T01:42:03.253Z,2.90
2017-04-09T01:43:02.447Z,2.90
2017-04-09T01:44:01.644Z,2.90
2017-04-09T01:45:01.245Z,2.90
2017-04-09T01:46:00.540Z,2.90
2017-04-09T01:46:59.726Z,2.90
2017-04-09T01:47:58.905Z,2.90
2017-04-09T01:48:58.081Z,2.90
2017-04-09T01:50:56.869Z,2.90
2017-04-09T01:51:56.060Z,2.90
2017-04-09T01:52:55.245Z,3.00
2017-04-09T01:53:54.436Z,3.00
2017-04-09T01:54:53.633Z,2.90
2017-04-09T01:55:52.833Z,2.90
2017-04-09T01:56:52.800Z,2.80
2017-04-09T01:57:52.043Z,2.80
2017-04-09T01:58:51.323Z,2.70
2017-04-09T01:59:50.492Z,2.70
2017-04-09T02:00:50.442Z,2.60
2017-04-09T02:01:49.645Z,2.60
2017-04-09T02:02:49.104Z,2.50
2017-04-09T02:03:48.300Z,2.50
2017-04-09T02:04:47.506Z,2.50
2017-04-09T02:05:46.695Z,2.40
2017-04-09T02:06:45.876Z,2.40
2017-04-09T02:07:45.062Z,2.40
2017-04-09T02:08:44.575Z,2.40
2017-04-09T02:09:43.753Z,2.40
2017-04-09T02:10:43.607Z,2.50
2017-04-09T02:11:43.531Z,2.40
2017-04-09T02:12:42.721Z,2.50
2017-04-09T02:13:41.896Z,2.60
2017-04-09T02:14:41.128Z,2.60
2017-04-09T02:15:40.320Z,2.60
2017-04-09T02:16:39.612Z,2.60
2017-04-09T02:17:38.816Z,2.60
2017-04-09T02:18:38.022Z,2.60
2017-04-09T02:19:37.952Z,2.50
2017-04-09T02:20:37.896Z,2.50
2017-04-09T02:21:37.079Z,2.40
2017-04-09T02:22:36.304Z,2.40
2017-04-09T02:23:35.481Z,2.30
2017-04-09T02:24:35.409Z,2.20
2017-04-09T02:25:34.607Z,2.20
2017-04-09T02:26:34.067Z,2.20
2017-04-09T02:27:33.252Z,2.10
2017-04-09T02:28:32.449Z,2.10
2017-04-09T02:29:32.376Z,2.10
2017-04-09T02:30:31.552Z,2.10
2017-04-09T02:31:30.738Z,2.10
2017-04-09T02:32:30.024Z,2.10
2017-04-09T02:33:29.226Z,2.10
2017-04-09T02:34:28.440Z,2.10
2017-04-09T02:35:28.394Z,2.10
2017-04-09T02:36:27.582Z,2.10
2017-04-09T02:37:26.760Z,2.10
2017-04-09T02:38:25.974Z,2.10
2017-04-09T02:39:25.176Z,2.10
2017-04-09T02:40:25.125Z,2.10
2017-04-09T02:41:24.332Z,2.10
2017-04-09T02:42:23.577Z,2.10
2017-04-09T02:43:22.748Z,2.10
2017-04-09T02:44:22.281Z,2.10
2017-04-09T02:45:21.461Z,2.10
2017-04-09T02:46:21.376Z,2.10
2017-04-09T02:47:20.573Z,2.10
2017-04-09T02:48:19.773Z,2.10
2017-04-09T02:49:18.950Z,2.10
2017-04-09T02:50:18.897Z,2.10
2017-04-09T02:51:18.078Z,2.20
2017-04-09T02:52:17.305Z,2.20
2017-04-09T02:53:16.497Z,2.20
2017-04-09T02:54:15.685Z,2.20
2017-04-09T02:55:14.870Z,2.10
2017-04-09T02:56:14.075Z,2.10
2017-04-09T02:57:13.272Z,2.20
2017-04-09T02:58:13.196Z,2.10
2017-04-09T02:59:12.403Z,2.20
2017-04-09T03:00:11.625Z,2.20
2017-04-09T03:01:11.542Z,2.20
2017-04-09T03:02:10.980Z,2.30
2017-04-09T03:03:10.157Z,2.30
2017-04-09T03:04:09.332Z,2.40
2017-04-09T03:05:08.511Z,2.40
2017-04-09T03:06:07.700Z,2.40
2017-04-09T03:07:06.907Z,2.40
2017-04-09T03:08:06.149Z,2.40
2017-04-09T03:09:05.845Z,2.40
2017-04-09T03:10:05.032Z,2.30
2017-04-09T03:11:04.196Z,2.30
2017-04-09T03:12:04.113Z,2.20
2017-04-09T03:13:03.329Z,2.20
2017-04-09T03:14:02.564Z,2.10
2017-04-09T03:15:02.516Z,2.10
2017-04-09T03:16:01.691Z,2.10
2017-04-09T03:17:00.913Z,2.10
2017-04-09T03:18:00.113Z,2.00
2017-04-09T03:18:59.321Z,2.00
2017-04-09T03:19:58.841Z,2.00
2017-04-09T03:20:58.022Z,2.00
2017-04-09T03:21:57.229Z,2.00
2017-04-09T03:22:56.404Z,2.00
2017-04-09T03:23:55.580Z,1.90
2017-04-09T03:24:54.755Z,1.90
2017-04-09T03:25:54.240Z,1.90
2017-04-09T03:26:53.417Z,1.80
2017-04-09T03:27:52.609Z,1.80
2017-04-09T03:28:51.845Z,1.80
2017-04-09T03:29:51.024Z,1.80
2017-04-09T03:30:50.959Z,1.70
2017-04-09T03:31:50.165Z,1.70
2017-04-09T03:32:49.330Z,1.70
2017-04-09T03:33:48.509Z,1.70
2017-04-09T03:34:47.681Z,1.80
2017-04-09T03:35:46.908Z,1.80
2017-04-09T03:36:46.128Z,1.80
2017-04-09T03:37:45.544Z,1.90
2017-04-09T03:38:45.476Z,1.90
2017-04-09T03:39:44.665Z,1.90
2017-04-09T03:40:43.872Z,2.00
2017-04-09T03:41:43.813Z,2.00
2017-04-09T03:42:43.741Z,1.90
2017-04-09T03:43:42.961Z,1.90
2017-04-09T03:44:42.160Z,1.90
2017-04-09T03:45:41.411Z,1.80
2017-04-09T03:46:40.603Z,1.90
2017-04-09T03:47:40.553Z,1.80
2017-04-09T03:48:39.757Z,1.90
2017-04-09T03:49:38.980Z,1.90
2017-04-09T03:50:38.905Z,1.90
2017-04-09T03:51:38.830Z,1.90
2017-04-09T03:52:38.019Z,2.00
2017-04-09T03:53:37.245Z,2.00
2017-04-09T03:54:36.435Z,1.90
2017-04-09T03:55:36.593Z,1.90
2017-04-09T03:56:35.788Z,1.80
2017-04-09T03:57:34.980Z,1.80
2017-04-09T03:58:34.169Z,1.80
2017-04-09T03:59:33.360Z,1.70
2017-04-09T04:00:33.361Z,1.70
2017-04-09T04:01:33.344Z,1.70
2017-04-09T04:02:32.530Z,1.70
2017-04-09T04:03:31.729Z,1.80
2017-04-09T04:04:31.656Z,1.80
2017-04-09T04:05:30.835Z,1.80
2017-04-09T04:06:30.012Z,1.90
2017-04-09T04:07:29.977Z,1.90
2017-04-09T04:08:29.161Z,1.90
2017-04-09T04:09:28.375Z,1.90
2017-04-09T04:10:27.589Z,2.00
2017-04-09T04:11:26.780Z,2.00
2017-04-09T04:12:26.729Z,2.00
2017-04-09T04:13:26.248Z,2.00
2017-04-09T04:14:25.448Z,2.00
2017-04-09T04:15:24.640Z,2.00
2017-04-09T04:16:23.830Z,2.10
2017-04-09T04:17:23.764Z,2.10
2017-04-09T04:18:22.960Z,2.10
2017-04-09T04:19:22.172Z,2.10
2017-04-09T04:20:21.356Z,2.10
2017-04-09T04:21:20.545Z,2.00
2017-04-09T04:22:19.727Z,1.90
2017-04-09T04:23:18.947Z,1.90
2017-04-09T04:24:18.269Z,1.80
2017-04-09T04:25:17.480Z,1.80
2017-04-09T04:26:16.668Z,1.80
2017-04-09T04:27:15.861Z,1.70
2017-04-09T04:28:15.040Z,1.70
2017-04-09T04:29:14.231Z,1.60
2017-04-09T04:30:13.433Z,1.60
2017-04-09T04:31:12.867Z,1.50
2017-04-09T04:32:12.833Z,1.50
2017-04-09T04:33:12.025Z,1.40
2017-04-09T04:34:11.221Z,1.40
2017-04-09T04:35:10.447Z,1.40
2017-04-09T04:36:10.423Z,1.30
2017-04-09T04:37:09.641Z,1.40
2017-04-09T04:38:08.828Z,1.40
2017-04-09T04:39:08.021Z,1.40
2017-04-09T04:40:07.209Z,1.40
2017-04-09T04:41:06.409Z,1.30
2017-04-09T04:42:05.604Z,1.30
2017-04-09T04:43:04.829Z,1.30
2017-04-09T04:44:04.025Z,1.40
2017-04-09T04:45:03.237Z,1.40
2017-04-09T04:46:03.151Z,1.40
2017-04-09T04:47:02.345Z,1.40
2017-04-09T04:48:01.538Z,1.50
2017-04-09T04:49:01.032Z,1.50
2017-04-09T04:50:00.219Z,1.50
2017-04-09T04:50:59.409Z,1.60
2017-04-09T04:51:58.600Z,1.60
2017-04-09T04:52:57.798Z,1.70
2017-04-09T04:53:56.983Z,1.70
2017-04-09T04:54:56.244Z,1.70
2017-04-09T04:55:55.444Z,1.80
2017-04-09T04:56:55.396Z,1.80
2017-04-09T04:57:55.314Z,1.90
2017-04-09T04:58:54.508Z,1.90
2017-04-09T04:59:53.701Z,1.80
2017-04-09T05:00:52.980Z,1.80
2017-04-09T05:01:52.173Z,1.80
2017-04-09T05:02:51.365Z,1.90
2017-04-09T05:03:50.569Z,1.90
2017-04-09T05:04:49.757Z,1.90
2017-04-09T05:05:48.944Z,1.90
2017-04-09T05:06:48.152Z,1.90
2017-04-09T05:07:48.087Z,2.00
2017-04-09T05:08:47.269Z,2.00
2017-04-09T05:09:46.453Z,2.10
2017-04-09T05:10:45.642Z,2.30
2017-04-09T05:11:44.844Z,2.50
2017-04-09T05:12:44.065Z,2.80
2017-04-09T05:13:43.256Z,3.00
2017-04-09T05:14:42.473Z,3.30
2017-04-09T05:15:42.397Z,3.60
2017-04-09T05:16:41.585Z,3.90
2017-04-09T05:17:40.760Z,4.10
2017-04-09T05:18:39.969Z,4.40
2017-04-09T05:19:39.915Z,4.60
2017-04-09T05:20:39.109Z,4.90
2017-04-09T05:22:37.760Z,5.50
2017-04-09T05:23:36.960Z,5.80
2017-04-09T05:24:36.192Z,6.00
2017-04-09T05:25:35.404Z,6.20
2017-04-09T05:26:34.596Z,6.40
2017-04-09T05:27:33.788Z,6.60
2017-04-09T05:28:32.980Z,6.90
2017-04-09T05:29:32.909Z,7.00
2017-04-09T05:30:32.448Z,7.30
2017-04-09T05:31:31.637Z,7.40
2017-04-09T05:32:30.823Z,7.60
2017-04-09T05:33:30.012Z,7.80
2017-04-09T05:34:29.193Z,7.90
2017-04-09T05:35:28.384Z,8.10
2017-04-09T05:36:27.653Z,8.30
2017-04-09T05:37:27.587Z,8.40
2017-04-09T05:38:26.771Z,8.60
2017-04-09T05:39:25.973Z,8.80
2017-04-09T05:40:25.917Z,8.90
2017-04-09T05:41:27.073Z,9.10
2017-04-09T05:42:26.624Z,9.30
2017-04-09T05:43:25.809Z,9.50
2017-04-09T05:44:24.992Z,9.50
2017-04-09T05:45:24.173Z,9.70
2017-04-09T05:46:24.106Z,9.80
2017-04-09T05:47:23.692Z,10.00
2017-04-09T05:48:23.619Z,10.10
2017-04-09T05:49:22.813Z,10.30
2017-04-09T05:50:22.016Z,10.50
2017-04-09T05:51:21.213Z,10.60
2017-04-09T05:52:20.416Z,10.70
2017-04-09T05:53:19.636Z,10.90
2017-04-09T05:54:19.572Z,11.00
2017-04-09T05:55:19.510Z,11.30
2017-04-09T05:56:18.708Z,11.40
2017-04-09T05:57:17.900Z,11.60
2017-04-09T05:58:17.124Z,11.70
2017-04-09T05:59:16.348Z,11.70
2017-04-09T06:00:15.540Z,11.80
2017-04-09T06:03:13.677Z,12.30
2017-04-09T06:04:12.894Z,12.40
2017-04-09T06:05:12.365Z,12.50
2017-04-09T06:06:11.558Z,12.70
2017-04-09T06:07:10.751Z,12.80
2017-04-09T06:08:09.953Z,12.90
2017-04-09T06:09:09.492Z,13.10
2017-04-09T06:10:08.713Z,13.20
2017-04-09T06:11:07.944Z,13.20
2017-04-09T06:12:07.873Z,13.30
2017-04-09T06:13:07.075Z,13.50
2017-04-09T06:14:06.284Z,13.70
2017-04-09T06:15:06.243Z,13.90
2017-04-09T06:16:05.467Z,14.00
2017-04-09T06:17:05.749Z,14.20
2017-04-09T06:18:04.944Z,14.40
2017-04-09T06:19:04.173Z,14.60
2017-04-09T06:20:03.353Z,14.70
2017-04-09T06:21:03.311Z,14.80
2017-04-09T06:22:02.512Z,15.00
2017-04-09T06:23:01.739Z,15.20
2017-04-09T06:24:01.685Z,15.40
2017-04-09T06:25:01.616Z,15.50
2017-04-09T06:26:00.821Z,15.60
2017-04-09T06:27:00.099Z,15.70
2017-04-09T06:27:59.322Z,15.90
2017-04-09T06:28:58.570Z,16.00
2017-04-09T06:29:57.772Z,16.00
2017-04-09T06:30:56.961Z,16.10
2017-04-09T06:31:56.154Z,16.40
2017-04-09T06:32:55.476Z,16.50
2017-04-09T06:33:54.681Z,16.50
2017-04-09T06:34:54.184Z,16.50
2017-04-09T06:35:54.115Z,16.50
2017-04-09T06:36:54.064Z,16.40
2017-04-09T06:37:53.264Z,16.60
2017-04-09T06:38:52.468Z,16.70
2017-04-09T06:39:51.669Z,16.70
2017-04-09T06:40:51.642Z,16.70
2017-04-09T06:41:50.873Z,16.60
2017-04-09T06:42:50.045Z,16.70
2017-04-09T06:43:49.228Z,16.90
2017-04-09T06:44:48.404Z,16.80
2017-04-09T06:45:47.589Z,16.70
2017-04-09T06:46:46.793Z,16.90
2017-04-09T06:47:45.965Z,16.90
2017-04-09T06:48:45.154Z,17.00
2017-04-09T06:49:44.333Z,17.10
2017-04-09T06:50:43.526Z,17.20
2017-04-09T06:51:42.714Z,17.50
2017-04-09T06:52:42.892Z,17.70
2017-04-09T06:53:42.075Z,17.80
2017-04-09T06:54:41.258Z,17.90
2017-04-09T06:55:40.451Z,18.10
2017-04-09T06:56:39.635Z,18.10
2017-04-09T06:57:38.817Z,18.20
2017-04-09T06:58:38.760Z,18.20
2017-04-09T06:59:37.953Z,18.20
2017-04-09T07:00:37.127Z,18.40
2017-04-09T07:01:36.305Z,18.50
2017-04-09T07:02:39.965Z,18.60
2017-04-09T07:03:39.169Z,18.50
2017-04-09T07:04:38.362Z,18.70
2017-04-09T07:05:37.582Z,18.70
2017-04-09T07:06:36.765Z,18.60
2017-04-09T07:07:35.952Z,18.80
2017-04-09T07:08:35.874Z,18.90
2017-04-09T07:09:35.091Z,19.10
2017-04-09T07:10:35.023Z,19.10
2017-04-09T07:11:34.233Z,18.90
2017-04-09T07:12:33.417Z,18.90
2017-04-09T07:13:32.613Z,19.10
2017-04-09T07:14:31.817Z,19.20
2017-04-09T07:15:31.040Z,19.00
2017-04-09T07:16:30.232Z,19.10
2017-04-09T07:17:29.432Z,19.30
2017-04-09T07:18:28.633Z,19.30
2017-04-09T07:19:27.816Z,19.40
2017-04-09T07:20:26.998Z,19.50
2017-04-09T07:21:26.235Z,19.60
2017-04-09T07:22:25.412Z,19.50
2017-04-09T07:23:24.603Z,19.50
2017-04-09T07:24:23.779Z,19.10
2017-04-09T07:25:22.981Z,19.10
2017-04-09T07:26:22.185Z,19.20
2017-04-09T07:27:21.664Z,19.00
2017-04-09T07:28:20.853Z,19.20
2017-04-09T07:29:20.038Z,19.40
2017-04-09T07:30:19.233Z,19.50
2017-04-09T07:31:18.429Z,19.40
2017-04-09T07:32:17.605Z,19.60
2017-04-09T07:33:16.841Z,19.80
2017-04-09T07:34:16.773Z,19.90
2017-04-09T07:35:15.956Z,19.80
2017-04-09T07:36:15.140Z,19.90
2017-04-09T07:37:14.333Z,20.00
2017-04-09T07:38:13.520Z,20.10
2017-04-09T07:39:12.743Z,20.40
2017-04-09T07:40:11.921Z,20.50
2017-04-09T07:41:11.145Z,20.70
2017-04-09T07:42:10.355Z,20.80
2017-04-09T07:43:09.569Z,20.90
2017-04-09T07:44:08.752Z,21.10
2017-04-09T07:45:07.965Z,21.20
2017-04-09T07:46:07.139Z,21.40
2017-04-09T07:47:06.425Z,21.70
2017-04-09T07:48:05.656Z,21.80
2017-04-09T07:49:05.577Z,22.00
2017-04-09T07:50:04.771Z,22.20
2017-04-09T07:51:03.976Z,22.20
2017-04-09T07:52:03.168Z,22.00
2017-04-09T07:53:03.107Z,22.00
2017-04-09T07:54:02.289Z,22.20
2017-04-09T07:55:01.473Z,22.20
2017-04-09T07:56:00.680Z,22.20
2017-04-09T07:56:59.848Z,22.30
2017-04-09T07:57:59.028Z,22.40
2017-04-09T07:58:58.212Z,22.50
2017-04-09T07:59:58.132Z,22.60
2017-04-09T08:00:57.324Z,22.50
2017-04-09T08:01:56.523Z,22.40
2017-04-09T08:02:55.724Z,22.20
2017-04-09T08:03:54.914Z,21.90
2017-04-09T08:04:54.098Z,21.70
2017-04-09T08:05:53.280Z,21.50
2017-04-09T08:06:52.719Z,21.20
2017-04-09T08:07:51.897Z,20.80
2017-04-09T08:08:51.086Z,20.80
2017-04-09T08:09:50.273Z,20.80
2017-04-09T08:10:49.443Z,20.70
2017-04-09T08:11:48.621Z,20.70
2017-04-09T08:12:47.852Z,20.90
2017-04-09T08:13:47.052Z,20.90
2017-04-09T08:14:46.240Z,20.90
2017-04-09T08:15:45.433Z,20.80
2017-04-09T08:16:44.616Z,20.60
2017-04-09T08:17:43.788Z,20.60
2017-04-09T08:18:43.955Z,20.60
2017-04-09T08:19:43.138Z,20.80
2017-04-09T08:20:42.327Z,21.00
2017-04-09T08:21:41.536Z,21.10
2017-04-09T08:22:40.747Z,21.20
2017-04-09T08:23:39.933Z,21.10
2017-04-09T08:24:39.147Z,21.20
2017-04-09T08:25:38.332Z,21.30
2017-04-09T08:26:37.509Z,21.30
2017-04-09T08:27:36.700Z,21.20
2017-04-09T08:28:36.635Z,21.00
2017-04-09T08:29:35.840Z,21.10
2017-04-09T08:30:35.070Z,21.20
2017-04-09T08:31:34.285Z,21.30
2017-04-09T08:32:33.476Z,21.40
2017-04-09T08:33:32.649Z,21.40
2017-04-09T08:34:32.077Z,21.60
2017-04-09T08:35:31.292Z,21.60
2017-04-09T08:36:30.481Z,21.80
2017-04-09T08:37:29.663Z,22.20
2017-04-09T08:38:28.864Z,22.40
2017-04-09T08:39:28.049Z,22.60
2017-04-09T08:40:27.240Z,22.80
2017-04-09T08:41:28.300Z,23.20
2017-04-09T08:42:27.496Z,23.50
2017-04-09T08:43:26.677Z,23.70
2017-04-09T08:44:25.873Z,23.90
2017-04-09T08:45:25.068Z,24.00
2017-04-09T08:46:24.281Z,24.10
2017-04-09T08:47:24.204Z,24.20
2017-04-09T08:48:23.396Z,24.30
2017-04-09T08:49:22.581Z,24.40
2017-04-09T08:50:21.776Z,24.70
2017-04-09T08:51:20.965Z,24.80
2017-04-09T08:52:20.489Z,25.00
2017-04-09T08:53:19.677Z,25.10
2017-04-09T08:54:19.265Z,24.80
2017-04-09T08:55:18.443Z,24.50
2017-04-09T08:56:18.404Z,24.30
2017-04-09T08:57:17.598Z,24.20
2017-04-09T08:58:16.822Z,24.20
2017-04-09T08:59:16.741Z,24.10
2017-04-09T09:00:16.663Z,24.10
2017-04-09T09:01:15.839Z,23.90
2017-04-09T09:02:15.013Z,24.10
2017-04-09T09:03:14.196Z,24.10
2017-04-09T09:04:14.149Z,24.10
2017-04-09T09:05:13.340Z,24.40
2017-04-09T09:06:12.529Z,24.50
2017-04-09T09:07:11.701Z,24.70
2017-04-09T09:08:10.883Z,24.80
2017-04-09T09:09:10.117Z,25.00
2017-04-09T09:10:09.300Z,25.10
2017-04-09T09:11:08.492Z,25.20
2017-04-09T09:12:07.728Z,25.40
2017-04-09T09:13:06.902Z,25.40
2017-04-09T09:14:06.088Z,25.60
2017-04-09T09:15:05.323Z,25.80
2017-04-09T09:16:04.533Z,25.80
2017-04-09T09:17:03.715Z,26.00
2017-04-09T09:18:02.920Z,26.30
2017-04-09T09:19:02.104Z,26.40
2017-04-09T09:20:02.033Z,26.60
2017-04-09T09:21:01.253Z,26.50
2017-04-09T09:22:00.454Z,26.40
2017-04-09T09:22:59.632Z,26.60
2017-04-09T09:23:59.549Z,26.70
2017-04-09T09:24:59.476Z,26.90
2017-04-09T09:25:58.654Z,26.90
2017-04-09T09:26:57.864Z,26.70
2017-04-09T09:27:57.053Z,26.70
2017-04-09T09:28:56.240Z,26.60
2017-04-09T09:29:55.424Z,26.70
2017-04-09T09:30:54.601Z,26.60
2017-04-09T09:31:53.826Z,26.30
2017-04-09T09:32:53.011Z,25.80
2017-04-09T09:33:52.199Z,25.20
2017-04-09T09:34:51.390Z,25.30
2017-04-09T09:35:50.571Z,25.20
2017-04-09T09:36:49.758Z,25.30
2017-04-09T09:37:49.709Z,25.50
2017-04-09T09:38:48.925Z,25.50
2017-04-09T09:39:48.864Z,25.30
2017-04-09T09:40:48.068Z,24.70
2017-04-09T09:41:48.507Z,24.60
2017-04-09T09:42:47.731Z,24.70
2017-04-09T09:43:47.676Z,24.70
2017-04-09T09:44:46.877Z,24.70
2017-04-09T09:45:46.819Z,24.60
2017-04-09T09:46:46.020Z,24.80
2017-04-09T09:47:45.220Z,24.90
2017-04-09T09:48:45.189Z,25.10
2017-04-09T09:49:44.388Z,24.80
2017-04-09T09:50:43.602Z,24.90
2017-04-09T09:51:43.547Z,25.00
2017-04-09T09:52:42.762Z,25.10
2017-04-09T09:53:41.978Z,25.10
2017-04-09T09:54:41.225Z,25.10
2017-04-09T09:55:40.452Z,25.10
2017-04-09T09:56:39.649Z,25.00
2017-04-09T09:57:38.873Z,25.00
2017-04-09T09:58:38.064Z,25.10
2017-04-09T09:59:37.277Z,25.30
2017-04-09T10:00:36.534Z,25.60
2017-04-09T10:01:35.739Z,25.90
2017-04-09T10:02:35.313Z,26.10
2017-04-09T10:03:34.508Z,25.60
2017-04-09T10:04:34.772Z,25.30
2017-04-09T10:05:34.009Z,24.70
2017-04-09T10:06:33.977Z,24.60
2017-04-09T10:07:33.194Z,24.60
2017-04-09T10:08:33.182Z,24.50
2017-04-09T10:09:32.393Z,24.10
2017-04-09T10:10:31.636Z,24.10
2017-04-09T10:11:30.856Z,24.10
2017-04-09T10:12:30.057Z,23.90
2017-04-09T10:13:29.264Z,24.20
2017-04-09T10:14:28.457Z,24.50
2017-04-09T10:15:27.672Z,24.80
2017-04-09T10:16:26.916Z,25.10
2017-04-09T10:17:26.167Z,25.20
2017-04-09T10:18:26.792Z,25.20
2017-04-09T10:19:30.079Z,25.40
2017-04-09T10:20:29.283Z,25.60
2017-04-09T10:21:29.246Z,25.60
2017-04-09T10:22:28.457Z,25.70
2017-04-09T10:23:27.704Z,25.60
2017-04-09T10:24:26.993Z,25.10
2017-04-09T10:25:26.208Z,24.70
2017-04-09T10:26:25.417Z,24.70
2017-04-09T10:27:24.651Z,24.80
2017-04-09T10:28:23.848Z,24.80
2017-04-09T10:29:23.048Z,25.20
2017-04-09T10:30:22.253Z,25.40
2017-04-09T10:31:21.462Z,25.60
2017-04-09T10:32:20.723Z,25.80
2017-04-09T10:33:19.959Z,25.90
2017-04-09T10:34:19.163Z,25.70
2017-04-09T10:35:18.356Z,25.50
2017-04-09T10:36:18.328Z,25.40
2017-04-09T10:37:17.549Z,25.30
2017-04-09T10:38:16.755Z,25.20
2017-04-09T10:39:16.736Z,25.30
2017-04-09T10:40:15.956Z,25.20
2017-04-09T10:41:15.177Z,25.10
2017-04-09T10:42:14.483Z,25.20
2017-04-09T10:43:13.668Z,25.10
2017-04-09T10:44:12.893Z,25.00
2017-04-09T10:45:12.891Z,24.80
2017-04-09T10:46:12.249Z,24.60
2017-04-09T10:47:11.417Z,24.60
2017-04-09T10:48:10.596Z,24.70
2017-04-09T10:49:09.783Z,24.70
2017-04-09T10:50:14.575Z,24.90
2017-04-09T10:51:13.784Z,24.90
2017-04-09T10:52:12.969Z,25.10
2017-04-09T10:53:12.202Z,25.10
2017-04-09T10:54:11.389Z,25.10
2017-04-09T10:55:10.588Z,25.40
2017-04-09T10:56:10.049Z,25.60
2017-04-09T10:57:09.235Z,25.80
2017-04-09T10:58:08.459Z,26.00
2017-04-09T10:59:07.669Z,26.00
2017-04-09T11:00:06.871Z,26.00
2017-04-09T11:01:06.061Z,26.00
2017-04-09T11:02:05.280Z,26.00
2017-04-09T11:03:04.461Z,26.20
2017-04-09T11:04:03.657Z,26.50
2017-04-09T11:05:02.856Z,26.60
2017-04-09T11:06:02.040Z,26.50
2017-04-09T11:07:01.258Z,26.60
2017-04-09T11:08:00.443Z,26.40
2017-04-09T11:08:59.651Z,26.20
2017-04-09T11:09:58.835Z,26.30
2017-04-09T11:10:58.024Z,26.30
2017-04-09T11:11:57.245Z,26.50
2017-04-09T11:12:57.165Z,26.50
2017-04-09T11:13:56.340Z,26.30
2017-04-09T11:14:55.520Z,26.10
2017-04-09T11:15:54.706Z,25.80
2017-04-09T11:16:53.892Z,26.00
2017-04-09T11:17:53.087Z,26.00
2017-04-09T11:18:52.267Z,26.20
2017-04-09T11:19:51.467Z,26.40
2017-04-09T11:20:50.650Z,26.50
2017-04-09T11:21:49.840Z,26.70
2017-04-09T11:22:49.063Z,26.50
2017-04-09T11:23:48.242Z,26.20
2017-04-09T11:24:47.427Z,26.20
2017-04-09T11:25:46.651Z,26.10
2017-04-09T11:26:45.840Z,25.90
2017-04-09T11:27:45.007Z,25.80
2017-04-09T11:28:44.968Z,25.90
2017-04-09T11:29:44.152Z,26.10
2017-04-09T11:30:43.334Z,26.30
2017-04-09T11:31:43.258Z,26.20
2017-04-09T11:32:42.429Z,26.30
2017-04-09T11:33:41.653Z,26.50
2017-04-09T11:34:41.577Z,26.70
2017-04-09T11:35:40.764Z,26.80
2017-04-09T11:36:39.949Z,26.80
2017-04-09T11:37:39.136Z,27.00
2017-04-09T11:38:39.359Z,27.10
2017-04-09T11:39:38.552Z,27.20
2017-04-09T11:40:38.475Z,27.30
2017-04-09T11:41:37.714Z,27.40
2017-04-09T11:42:36.912Z,27.50
2017-04-09T11:43:36.104Z,27.80
2017-04-09T11:44:36.082Z,27.80
2017-04-09T11:45:35.280Z,27.90
2017-04-09T11:46:34.516Z,27.80
2017-04-09T11:47:34.168Z,27.70
2017-04-09T11:48:34.098Z,27.70
2017-04-09T11:49:33.323Z,27.70
2017-04-09T11:50:32.510Z,27.60
2017-04-09T11:51:31.705Z,27.60
2017-04-09T11:52:30.900Z,27.80
2017-04-09T11:53:30.090Z,27.80
2017-04-09T11:54:29.300Z,27.60
2017-04-09T11:55:28.524Z,27.40
2017-04-09T11:56:28.449Z,27.20
2017-04-09T11:57:27.655Z,27.40
2017-04-09T11:58:27.261Z,27.10
2017-04-09T11:59:26.449Z,26.90
2017-04-09T12:00:25.675Z,26.60
2017-04-09T12:01:25.604Z,26.40
2017-04-09T12:02:24.808Z,26.60
2017-04-09T12:03:24.013Z,26.60
2017-04-09T12:04:23.216Z,26.50
2017-04-09T12:05:22.420Z,26.60
2017-04-09T12:06:21.631Z,26.80
2017-04-09T12:07:20.820Z,26.90
2017-04-09T12:08:20.018Z,27.10
2017-04-09T12:09:19.371Z,26.70
2017-04-09T12:10:18.562Z,26.70
2017-04-09T12:11:17.796Z,26.70
2017-04-09T12:12:17.752Z,26.60
2017-04-09T12:13:16.936Z,26.60
2017-04-09T12:14:16.876Z,26.80
2017-04-09T12:15:16.064Z,26.70
2017-04-09T12:16:15.277Z,26.50
2017-04-09T12:17:14.492Z,26.50
2017-04-09T12:18:13.693Z,26.50
2017-04-09T12:19:12.891Z,26.20
2017-04-09T12:20:12.828Z,25.80
2017-04-09T12:21:12.023Z,25.90
2017-04-09T12:22:11.243Z,26.10
2017-04-09T12:23:10.448Z,26.20
2017-04-09T12:24:09.648Z,26.20
2017-04-09T12:25:08.856Z,26.10
2017-04-09T12:26:08.044Z,26.20
2017-04-09T12:27:07.242Z,26.20
2017-04-09T12:28:07.202Z,26.30
2017-04-09T12:29:06.393Z,26.50
2017-04-09T12:30:05.572Z,26.50
2017-04-09T12:31:04.815Z,26.60
2017-04-09T12:32:04.005Z,26.60
2017-04-09T12:33:04.037Z,26.60
2017-04-09T12:34:03.233Z,26.40
2017-04-09T12:35:02.420Z,26.40
2017-04-09T12:36:01.621Z,26.40
2017-04-09T12:37:00.820Z,26.50
2017-04-09T12:38:00.013Z,26.40
2017-04-09T12:38:59.224Z,26.40
2017-04-09T12:39:58.430Z,26.20
2017-04-09T12:40:58.360Z,26.10
2017-04-09T12:41:57.552Z,26.20
2017-04-09T12:42:56.739Z,26.20
2017-04-09T12:43:55.937Z,26.20
2017-04-09T12:44:55.132Z,26.30
2017-04-09T12:45:54.312Z,26.40
2017-04-09T12:46:53.500Z,26.30
2017-04-09T12:47:52.681Z,26.20
2017-04-09T12:48:51.868Z,26.20
2017-04-09T12:49:51.076Z,26.10
2017-04-09T12:50:51.013Z,26.00
2017-04-09T12:51:50.198Z,26.20
2017-04-09T12:52:49.385Z,26.30
2017-04-09T12:53:48.569Z,26.20
2017-04-09T12:54:47.740Z,26.20
2017-04-09T12:55:47.711Z,26.10
2017-04-09T12:56:46.892Z,26.00
2017-04-09T12:57:46.064Z,26.00
2017-04-09T12:58:45.972Z,25.70